スィクティフカル の空港の天気 - METARとTAF

Syktyvkar ( UUYY / SCW ) - ロシア スィクティフカル
飛行場実況気象(Metar)
観測時間06/24 12:30 MSK (06/24 09:30 UTC)
風向・風速西北西 3m/s
視程10km以上
天気現象
全天の8割程度の雲 雲底高度 790m
気温15℃
湿度77%
気圧1015hPa
METARUUYY 240930Z 30003MPS 250V350 9999 BKN026CB 15/11 Q1015 R18/29//51 TEMPO 4000 -SHRA RMK QFE753/1004
過去の天気等 Google飛行場航空写真 Wunderground天気予報

過去48時間のMETAR

飛行場予報(TAF)
発表時間: 6/24 11:00 MSK (6/24 08:00 UTC)
予報対象時間: 24日12時 MSK ~ 25日12時 MSK
風向・風速西 5m/s 瞬間風速 10m/s
視程10km以上
全天の8割程度の積乱雲 雲底高度 760m
24日12時 MSK ~ 24日18時 MSK に一時的に
風向・風速北西 6m/s 瞬間風速 14m/s
視程4000m
天気現象弱いしゅう雨
全天の8割程度の雲 雲底高度 340m
全天の8割程度の積乱雲 雲底高度 610m
24日18時 MSK から
風向・風速北西 5m/s 瞬間風速 10m/s
視程6000m
全天の8割程度の雲 雲底高度 340m
全天の8割程度の積乱雲 雲底高度 610m
24日18時 MSK ~ 25日12時 MSK に一時的に
風向・風速北 3m/s 瞬間風速 8m/s
視程3100m
天気現象弱いしゅう雨 もや
少しの雲 雲底高度 210m
全天の8割程度の積乱雲 雲底高度 460m
TAF UUYY 240800Z 2409/2509 28005G10MPS 9999 BKN025CB
TEMPO 2409/2415 32006G14MPS 4000 -SHRA BKN011 BKN020CB
FM241500 32005G10MPS 6000 BKN011 BKN020CB
TEMPO 2415/2509 36003G08MPS 3100 -SHRA BR FEW007 BKN015CB